Orrville, Canada
Current Conditions -  °F | °C
As of 9:00 AM on Thursday 27 Nov 2014 (Local Time) from CYQA Reporting Station
Overcast Overcast  
Wind Chill: 21°   Ceiling: 2300
Heat Index: 21°   Visibility: 9mi
Dew Point: 19°   Wind: 2mph
Humidity: 93%   Direction: NA
Pressure: 30.04"   Gusts: NA
Location:  45.38°N, 79.78°W
Report Text: CYQA 271400Z AUTO VRB02KT 9SM OVC023 M06/M07 A3004 RMK SLP188
Loading
Personal Weather Stations






























Interactive Weather Map New forecast layout! Learn more

10-Day Weather Forecast

Advertisements
Track Severe Weather on mobile